Chicago, IL (60630)

4:13 AM CDT on September 21, 2014 (GMT -0500)
Jefferson Park | Change Station
CLOSE
Current Station
Personal Weather Station
Location: Chicago, IL
Elevation: 623 ft
Nearby Weather Stations

Elev 623 ft 41.97 °N, 87.77 °W | Updated 10 minutes ago

Partly Cloudy
Partly Cloudy
61.2 °F
Feels Like 61.2 °F
N
7.3
Wind Variable Wind from West

Today
High -- | Low -- °F
--% Chance of Precip.
Yesterday
High -- | Low -- °F
Precip. -- in
6:37 AM 6:50 PM
Waning Crescent, 8% visible
Pressure 29.75 in
Visibility 10.0 miles
Clouds Few 2300 ft
Dew Point 56 °F
Humidity 82%
Rainfall 0.07 in
Snow Depth Not available.
UV 0 out of 12
Pollen 5.00 out of 12
Ozone Good
PM2.5 Moderate
Flu Activity Not available.
METAR KORD 210851Z 29014G22KT 10SM FEW023 17/13 A2976 RMK AO2 PK WND 30032/0759 SLP075 60000 T01670128 53018 $

More Conditions Fewer Conditions

Pressure 29.75 in
Visibility 10.0 miles
Clouds Few 2300 ft
Dew Point 56 °F
Humidity 82%
Rainfall 0.07 in
Snow Depth Not available.
UV 0 out of 12
Pollen 5.00 out of 12
Ozone Good
PM2.5 Moderate
Flu Activity Not available.
METAR KORD 210851Z 29014G22KT 10SM FEW023 17/13 A2976 RMK AO2 PK WND 30032/0759 SLP075 60000 T01670128 53018 $

More Conditions Fewer Conditions

10-Day Weather Forecast

Almanac

Astronomy

Sep. 21, 2014 Rise Set
Actual Time 6:37 AM CDT 6:50 PM CDT
Civil Twilight 6:09 AM CDT 7:17 PM CDT
Nautical Twilight 5:36 AM CDT 7:50 PM CDT
Astronomical Twilight 5:03 AM CDT 8:23 PM CDT
Moon 4:08 AM CDT 5:27 PM CDT
Length of Visible Light 13h 08m
Length of Day
12h 12m
Tomorrow will be 2m 48s shorter.
Waning Crescent, 8% of the Moon is Illuminated
Today
Waning Crescent
Sep 24
New
Oct 1
First Quarter
Oct 8
Full
Oct 15
Last Quarter

Today's Extremes

State Highs State Lows

Community

WunderPhotos

Upload Photos

1,755,100 photos uploaded!

Nearby

Air Quality

  Air Quality AQ Index Pollutant
Yesterday Moderate
PM2.5
Yesterday Good
OZONE
Current Moderate
PM2.5
Current Good
OZONE
Sunday Good
PM2.5
Monday Good
PM2.5
Tuesday Moderate
PM2.5

Snow Depth

Station Depth Elevation
No new snow has been reported.

Earthquake Activity

City Distance Mag. Time & Date
No recent earthquake activity has been reported nearby.
Minimum magnitude displayed is 2.5.

Coastal Water Temperatures

Place Temperature
No Stations Reporting

Nearby Weather Stations